createdAt,value
2023-06-04T00:01:25.071Z,16.98
2023-06-04T00:04:28.268Z,16.93
2023-06-04T00:07:30.906Z,16.96
2023-06-04T00:10:35.042Z,16.89
2023-06-04T00:13:37.464Z,16.90
2023-06-04T00:16:41.975Z,16.82
2023-06-04T00:19:44.436Z,16.78
2023-06-04T00:22:47.658Z,16.80
2023-06-04T00:25:50.076Z,16.79
2023-06-04T00:28:53.025Z,16.78
2023-06-04T00:31:55.747Z,16.76
2023-06-04T00:34:59.227Z,16.72
2023-06-04T00:38:01.617Z,16.74
2023-06-04T00:41:04.833Z,16.70
2023-06-04T00:44:07.829Z,16.72
2023-06-04T00:47:17.604Z,16.71
2023-06-04T00:50:22.066Z,16.72
2023-06-04T00:53:25.715Z,16.71
2023-06-04T00:56:28.032Z,16.69
2023-06-04T00:59:33.461Z,16.67
2023-06-04T01:02:36.980Z,16.65
2023-06-04T01:05:44.779Z,16.67
2023-06-04T01:08:48.759Z,16.66
2023-06-04T01:11:51.633Z,16.62
2023-06-04T01:14:54.024Z,16.62
2023-06-04T01:18:04.233Z,16.65
2023-06-04T01:21:09.034Z,16.63
2023-06-04T01:24:11.984Z,16.64
2023-06-04T01:27:16.935Z,16.61
2023-06-04T01:30:24.924Z,16.60
2023-06-04T01:33:27.337Z,16.64
2023-06-04T01:36:30.424Z,16.63
2023-06-04T01:39:32.865Z,16.66
2023-06-04T01:42:36.523Z,16.65
2023-06-04T01:45:38.956Z,16.61
2023-06-04T01:48:42.055Z,16.60
2023-06-04T01:51:44.436Z,16.61
2023-06-04T01:54:47.357Z,16.55
2023-06-04T01:57:49.709Z,16.52
2023-06-04T02:00:54.096Z,16.47
2023-06-04T02:03:56.975Z,16.47
2023-06-04T02:07:00.606Z,16.41
2023-06-04T02:10:03.610Z,16.42
2023-06-04T02:13:07.619Z,16.44
2023-06-04T02:16:10.513Z,16.52
2023-06-04T02:19:14.688Z,16.49
2023-06-04T02:22:20.815Z,16.46
2023-06-04T02:25:24.607Z,16.41
2023-06-04T02:28:27.324Z,16.43
2023-06-04T02:31:29.966Z,16.43
2023-06-04T02:34:32.573Z,16.40
2023-06-04T02:37:35.327Z,16.43
2023-06-04T02:40:38.193Z,16.42
2023-06-04T02:43:40.920Z,16.43
2023-06-04T02:46:44.473Z,16.39
2023-06-04T02:49:47.735Z,16.39
2023-06-04T02:52:50.753Z,16.38
2023-06-04T02:55:53.955Z,16.45
2023-06-04T02:58:57.090Z,16.45
2023-06-04T03:02:00.096Z,16.43
2023-06-04T03:05:03.588Z,16.41
2023-06-04T03:08:06.402Z,16.47
2023-06-04T03:11:09.427Z,16.40
2023-06-04T03:14:12.179Z,16.44
2023-06-04T03:17:14.784Z,16.45
2023-06-04T03:20:17.910Z,16.35
2023-06-04T03:23:21.014Z,16.37
2023-06-04T03:26:23.757Z,16.37
2023-06-04T03:29:26.352Z,16.35
2023-06-04T03:32:29.468Z,16.35
2023-06-04T03:35:32.442Z,16.44
2023-06-04T03:38:36.359Z,16.44
2023-06-04T03:41:39.722Z,16.47
2023-06-04T03:44:43.409Z,16.48
2023-06-04T03:47:46.922Z,16.46
2023-06-04T03:50:50.701Z,16.51
2023-06-04T03:53:53.548Z,16.52
2023-06-04T03:56:56.580Z,16.57
2023-06-04T03:59:59.434Z,16.68
2023-06-04T04:03:02.494Z,16.65
2023-06-04T04:06:05.755Z,16.59
2023-06-04T04:09:08.464Z,16.58
2023-06-04T04:12:11.402Z,16.60
2023-06-04T04:15:14.421Z,16.62
2023-06-04T04:18:18.140Z,16.60
2023-06-04T04:21:22.101Z,16.59
2023-06-04T04:24:28.531Z,16.57
2023-06-04T04:27:32.286Z,16.68
2023-06-04T04:30:36.165Z,16.65
2023-06-04T04:33:40.887Z,16.70
2023-06-04T04:36:53.052Z,16.64
2023-06-04T04:39:56.141Z,16.74
2023-06-04T04:42:59.249Z,16.80
2023-06-04T04:46:02.287Z,16.77
2023-06-04T04:49:05.015Z,16.75
2023-06-04T04:52:07.740Z,16.86
2023-06-04T04:55:12.997Z,16.98
2023-06-04T04:58:16.637Z,17.04
2023-06-04T05:01:19.486Z,17.23
2023-06-04T05:04:22.215Z,17.30
2023-06-04T05:07:26.030Z,17.37
2023-06-04T05:10:29.667Z,17.44
2023-06-04T05:13:33.061Z,17.40
2023-06-04T05:16:40.676Z,17.37
2023-06-04T05:19:45.891Z,17.54
2023-06-04T05:22:48.616Z,17.51
2023-06-04T05:25:51.699Z,17.43
2023-06-04T05:28:56.633Z,17.46
2023-06-04T05:32:01.174Z,17.45
2023-06-04T05:35:05.769Z,17.50
2023-06-04T05:38:09.331Z,17.53
2023-06-04T05:41:13.182Z,17.54
2023-06-04T05:44:17.582Z,17.53
2023-06-04T05:47:20.714Z,17.72
2023-06-04T05:50:23.625Z,17.74
2023-06-04T05:53:26.875Z,17.77
2023-06-04T05:56:29.812Z,17.77
2023-06-04T05:59:33.280Z,17.90
2023-06-04T06:02:36.324Z,17.98
2023-06-04T06:05:39.547Z,17.99
2023-06-04T06:08:41.901Z,18.12
2023-06-04T06:11:46.247Z,18.04
2023-06-04T06:14:49.520Z,18.09
2023-06-04T06:17:52.652Z,18.11
2023-06-04T06:20:55.261Z,18.45
2023-06-04T06:23:58.827Z,18.78
2023-06-04T06:27:01.375Z,18.97
2023-06-04T06:30:05.013Z,19.07
2023-06-04T06:33:07.692Z,19.31
2023-06-04T06:36:13.881Z,19.50
2023-06-04T06:39:17.098Z,19.56
2023-06-04T06:42:20.918Z,19.54
2023-06-04T06:45:24.833Z,19.50
2023-06-04T06:48:27.764Z,19.64
2023-06-04T06:51:30.168Z,19.76
2023-06-04T06:54:33.083Z,19.69
2023-06-04T06:57:35.706Z,19.68
2023-06-04T07:00:38.815Z,19.61
2023-06-04T07:03:41.367Z,19.60
2023-06-04T07:06:44.379Z,19.57
2023-06-04T07:09:47.149Z,19.60
2023-06-04T07:12:50.165Z,19.60
2023-06-04T07:15:52.479Z,19.63
2023-06-04T07:18:55.357Z,19.74
2023-06-04T07:21:57.768Z,19.79
2023-06-04T07:25:00.659Z,19.96
2023-06-04T07:28:05.055Z,20.23
2023-06-04T07:31:08.210Z,20.36
2023-06-04T07:34:10.715Z,20.37
2023-06-04T07:37:14.973Z,20.45
2023-06-04T07:40:17.981Z,20.62
2023-06-04T07:43:20.910Z,20.75
2023-06-04T07:46:23.427Z,20.83
2023-06-04T07:49:26.315Z,20.89
2023-06-04T07:52:28.664Z,21.21
2023-06-04T07:55:32.945Z,21.01
2023-06-04T07:58:35.608Z,21.20
2023-06-04T08:01:38.497Z,21.34
2023-06-04T08:04:41.687Z,21.62
2023-06-04T08:07:44.458Z,21.75
2023-06-04T08:10:47.141Z,21.79
2023-06-04T08:13:50.170Z,21.85
2023-06-04T08:16:53.005Z,22.02
2023-06-04T08:19:57.275Z,21.96
2023-06-04T08:22:59.877Z,22.14
2023-06-04T08:26:02.829Z,22.17
2023-06-04T08:29:05.761Z,22.18
2023-06-04T08:32:08.986Z,22.27
2023-06-04T08:35:11.901Z,22.20
2023-06-04T08:38:14.501Z,22.22
2023-06-04T08:41:21.473Z,22.49
2023-06-04T08:44:24.041Z,22.51
2023-06-04T08:47:29.636Z,22.74
2023-06-04T08:50:33.729Z,22.81
2023-06-04T08:53:37.806Z,23.18
2023-06-04T08:56:40.506Z,23.21
2023-06-04T08:59:43.161Z,23.12
2023-06-04T09:02:46.203Z,23.28
2023-06-04T09:05:50.534Z,23.13
2023-06-04T09:08:58.122Z,22.82
2023-06-04T09:12:02.710Z,22.71
2023-06-04T09:15:05.488Z,22.52
2023-06-04T09:18:08.161Z,22.61
2023-06-04T09:21:10.939Z,22.31
2023-06-04T09:24:13.560Z,22.01
2023-06-04T09:27:20.167Z,22.05
2023-06-04T09:30:23.304Z,21.95
2023-06-04T09:33:27.718Z,22.10
2023-06-04T09:36:34.378Z,22.28
2023-06-04T09:39:37.310Z,22.02
2023-06-04T09:42:43.867Z,21.86
2023-06-04T09:45:47.845Z,22.04
2023-06-04T09:49:00.192Z,22.05
2023-06-04T09:52:02.795Z,22.09
2023-06-04T09:55:16.053Z,22.27
2023-06-04T09:58:19.513Z,21.98
2023-06-04T10:01:24.226Z,22.02
2023-06-04T10:04:28.635Z,21.98
2023-06-04T10:07:31.490Z,21.86
2023-06-04T10:10:36.718Z,21.76
2023-06-04T10:13:41.931Z,21.76
2023-06-04T10:16:45.112Z,21.55
2023-06-04T10:19:50.831Z,21.64
2023-06-04T10:22:54.250Z,21.72
2023-06-04T10:25:57.332Z,21.86
2023-06-04T10:29:01.590Z,21.83
2023-06-04T10:32:04.497Z,21.81
2023-06-04T10:35:10.528Z,21.81
2023-06-04T10:38:14.683Z,21.89
2023-06-04T10:41:18.472Z,21.91
2023-06-04T10:44:21.207Z,22.07
2023-06-04T10:47:27.851Z,22.21
2023-06-04T10:50:30.366Z,22.38
2023-06-04T10:53:37.690Z,22.56
2023-06-04T10:56:40.086Z,22.55
2023-06-04T10:59:42.939Z,22.47
2023-06-04T11:02:57.709Z,22.33
2023-06-04T11:06:00.775Z,22.38
2023-06-04T11:09:06.870Z,22.67
2023-06-04T11:12:09.755Z,22.89
2023-06-04T11:15:12.636Z,22.92
2023-06-04T11:18:16.534Z,23.17
2023-06-04T11:21:18.924Z,23.44
2023-06-04T11:24:21.892Z,23.50
2023-06-04T11:27:35.674Z,23.53
2023-06-04T11:30:39.667Z,23.51
2023-06-04T11:33:45.434Z,23.37
2023-06-04T11:36:50.836Z,23.33
2023-06-04T11:39:53.190Z,23.27
2023-06-04T11:42:56.159Z,23.16
2023-06-04T11:45:59.023Z,22.82
2023-06-04T11:49:02.990Z,22.62
2023-06-04T11:52:05.565Z,22.43
2023-06-04T11:55:12.182Z,22.44
2023-06-04T11:58:14.658Z,22.28
2023-06-04T12:01:18.192Z,22.33
2023-06-04T12:04:20.830Z,22.38
2023-06-04T12:07:25.451Z,22.46
2023-06-04T12:10:29.877Z,22.22
2023-06-04T12:13:38.277Z,22.38
2023-06-04T12:16:41.545Z,22.28
2023-06-04T12:19:49.404Z,22.23
2023-06-04T12:22:53.319Z,22.28
2023-06-04T12:25:56.766Z,22.15
2023-06-04T12:29:13.478Z,22.05
2023-06-04T12:32:16.556Z,22.04
2023-06-04T12:35:20.618Z,22.14
2023-06-04T12:38:23.689Z,22.15
2023-06-04T12:41:27.179Z,22.13
2023-06-04T12:44:30.385Z,22.16
2023-06-04T12:47:32.968Z,22.21
2023-06-04T12:50:36.295Z,22.32
2023-06-04T12:53:45.208Z,22.44
2023-06-04T12:56:47.834Z,22.58
2023-06-04T12:59:50.501Z,22.67
2023-06-04T13:02:53.211Z,22.73
2023-06-04T13:05:55.976Z,22.79
2023-06-04T13:08:58.636Z,22.83
2023-06-04T13:12:01.326Z,22.81
2023-06-04T13:15:04.317Z,22.72
2023-06-04T13:18:07.093Z,22.70
2023-06-04T13:21:09.879Z,22.77
2023-06-04T13:24:12.755Z,22.79
2023-06-04T13:27:15.534Z,22.80
2023-06-04T13:30:18.958Z,22.91
2023-06-04T13:33:22.643Z,23.16
2023-06-04T13:36:25.245Z,23.33
2023-06-04T13:39:28.295Z,23.48
2023-06-04T13:42:31.060Z,23.61
2023-06-04T13:45:33.746Z,23.86
2023-06-04T13:48:36.324Z,24.18
2023-06-04T13:51:38.965Z,24.23
2023-06-04T13:54:41.927Z,24.30
2023-06-04T13:57:44.679Z,24.46
2023-06-04T14:00:47.634Z,24.35
2023-06-04T14:03:51.486Z,24.28
2023-06-04T14:06:53.923Z,24.13
2023-06-04T14:09:56.903Z,24.01
2023-06-04T14:12:59.388Z,23.90
2023-06-04T14:16:02.527Z,23.94
2023-06-04T14:19:04.922Z,23.89
2023-06-04T14:22:08.295Z,24.00
2023-06-04T14:25:10.883Z,23.99
2023-06-04T14:28:13.860Z,23.91
2023-06-04T14:31:16.430Z,23.83
2023-06-04T14:34:19.415Z,23.81
2023-06-04T14:37:22.069Z,23.71
2023-06-04T14:40:25.055Z,23.53
2023-06-04T14:43:27.368Z,23.35
2023-06-04T14:46:30.413Z,23.26
2023-06-04T14:49:33.178Z,23.21
2023-06-04T14:52:36.127Z,23.14
2023-06-04T14:55:38.509Z,23.08
2023-06-04T14:58:41.416Z,23.06
2023-06-04T15:01:43.783Z,23.00
2023-06-04T15:04:47.477Z,22.94
2023-06-04T15:07:49.932Z,22.86
2023-06-04T15:10:52.853Z,22.86
2023-06-04T15:13:55.642Z,22.78
2023-06-04T15:16:58.865Z,22.82
2023-06-04T15:20:01.473Z,22.76
2023-06-04T15:23:04.469Z,22.78
2023-06-04T15:26:06.821Z,22.80
2023-06-04T15:29:10.132Z,22.67
2023-06-04T15:32:12.760Z,22.55
2023-06-04T15:35:15.864Z,22.57
2023-06-04T15:38:18.206Z,22.54
2023-06-04T15:41:22.460Z,22.39
2023-06-04T15:44:25.065Z,22.27
2023-06-04T15:47:28.043Z,22.28
2023-06-04T15:50:30.440Z,22.27
2023-06-04T15:53:33.505Z,22.25
2023-06-04T15:56:36.699Z,22.30
2023-06-04T15:59:39.673Z,22.29
2023-06-04T16:02:42.101Z,22.30
2023-06-04T16:05:45.053Z,22.29
2023-06-04T16:08:47.769Z,22.25
2023-06-04T16:11:50.638Z,22.09
2023-06-04T16:14:53.011Z,22.12
2023-06-04T16:17:56.276Z,22.14
2023-06-04T16:20:59.259Z,22.14
2023-06-04T16:24:02.281Z,22.04
2023-06-04T16:27:04.783Z,22.23
2023-06-04T16:30:08.080Z,22.14
2023-06-04T16:33:10.649Z,22.16
2023-06-04T16:36:13.842Z,22.15
2023-06-04T16:39:16.173Z,22.06
2023-06-04T16:42:19.181Z,22.13
2023-06-04T16:45:22.148Z,22.13
2023-06-04T16:48:25.186Z,21.89
2023-06-04T16:51:27.534Z,21.86
2023-06-04T16:54:30.948Z,21.74
2023-06-04T16:57:33.420Z,21.73
2023-06-04T17:00:36.585Z,21.71
2023-06-04T17:03:39.087Z,21.62
2023-06-04T17:06:42.104Z,21.48
2023-06-04T17:09:44.934Z,21.48
2023-06-04T17:12:49.009Z,21.49
2023-06-04T17:15:51.406Z,21.47
2023-06-04T17:18:54.431Z,21.35
2023-06-04T17:21:56.955Z,21.37
2023-06-04T17:25:00.040Z,21.31
2023-06-04T17:28:02.385Z,21.26
2023-06-04T17:31:05.463Z,21.26
2023-06-04T17:34:07.889Z,21.17
2023-06-04T17:37:10.898Z,21.17
2023-06-04T17:40:13.257Z,21.15
2023-06-04T17:43:16.371Z,21.07
2023-06-04T17:46:19.117Z,21.10
2023-06-04T17:49:22.648Z,21.04
2023-06-04T17:52:25.028Z,21.03
2023-06-04T17:55:27.987Z,20.99
2023-06-04T17:58:30.441Z,20.92
2023-06-04T18:01:33.639Z,20.91
2023-06-04T18:04:36.360Z,20.89
2023-06-04T18:07:39.288Z,20.87
2023-06-04T18:10:43.015Z,20.82
2023-06-04T18:13:45.955Z,20.78
2023-06-04T18:16:48.665Z,20.86
2023-06-04T18:19:52.444Z,20.85
2023-06-04T18:22:55.135Z,20.89
2023-06-04T18:25:59.901Z,20.77
2023-06-04T18:29:03.450Z,20.68
2023-06-04T18:32:06.398Z,20.70
2023-06-04T18:35:09.353Z,20.65
2023-06-04T18:38:12.330Z,20.64
2023-06-04T18:41:16.165Z,20.64
2023-06-04T18:44:18.908Z,20.66
2023-06-04T18:47:22.301Z,20.70
2023-06-04T18:50:24.919Z,20.63
2023-06-04T18:53:27.548Z,20.61
2023-06-04T18:56:30.168Z,20.56
2023-06-04T18:59:32.868Z,20.48
2023-06-04T19:02:39.544Z,20.48
2023-06-04T19:05:42.603Z,20.47
2023-06-04T19:08:45.855Z,20.36
2023-06-04T19:11:48.476Z,20.35
2023-06-04T19:14:51.102Z,20.30
2023-06-04T19:17:53.819Z,20.28
2023-06-04T19:20:56.436Z,20.32
2023-06-04T19:23:59.081Z,20.28
2023-06-04T19:27:01.772Z,20.25
2023-06-04T19:30:04.701Z,20.26
2023-06-04T19:33:07.411Z,20.20
2023-06-04T19:36:10.268Z,20.20
2023-06-04T19:39:12.975Z,20.11
2023-06-04T19:42:15.761Z,20.14
2023-06-04T19:45:18.461Z,20.04
2023-06-04T19:48:21.536Z,20.03
2023-06-04T19:51:26.369Z,19.98
2023-06-04T19:54:30.693Z,20.08
2023-06-04T19:57:33.351Z,19.95
2023-06-04T20:00:36.235Z,19.93
2023-06-04T20:03:41.805Z,19.91
2023-06-04T20:06:46.621Z,19.98
2023-06-04T20:09:49.577Z,19.93
2023-06-04T20:12:51.986Z,19.90
2023-06-04T20:15:54.927Z,19.91
2023-06-04T20:18:57.298Z,19.80
2023-06-04T20:22:00.528Z,19.76
2023-06-04T20:25:02.987Z,19.80
2023-06-04T20:28:06.107Z,19.71
2023-06-04T20:31:08.538Z,19.68
2023-06-04T20:34:11.630Z,19.71
2023-06-04T20:37:14.055Z,19.67
2023-06-04T20:40:17.164Z,19.65
2023-06-04T20:43:19.734Z,19.59
2023-06-04T20:46:23.577Z,19.62
2023-06-04T20:49:26.206Z,19.54
2023-06-04T20:52:29.149Z,19.53
2023-06-04T20:55:31.476Z,19.54
2023-06-04T20:58:34.484Z,19.54
2023-06-04T21:01:36.884Z,19.54
2023-06-04T21:04:39.861Z,19.52
2023-06-04T21:07:42.199Z,19.48
2023-06-04T21:10:45.096Z,19.51
2023-06-04T21:13:47.474Z,19.47
2023-06-04T21:16:50.566Z,19.53
2023-06-04T21:19:52.955Z,19.52
2023-06-04T21:22:55.857Z,19.46
2023-06-04T21:25:58.335Z,19.44
2023-06-04T21:29:01.273Z,19.46
2023-06-04T21:32:03.818Z,19.47
2023-06-04T21:35:07.052Z,19.47
2023-06-04T21:38:09.531Z,19.43
2023-06-04T21:41:12.437Z,19.47
2023-06-04T21:44:14.816Z,19.46
2023-06-04T21:47:18.036Z,19.39
2023-06-04T21:50:20.868Z,19.36
2023-06-04T21:53:24.032Z,19.37
2023-06-04T21:56:27.208Z,19.34
2023-06-04T21:59:30.146Z,19.39
2023-06-04T22:02:32.536Z,19.30
2023-06-04T22:05:36.032Z,19.25
2023-06-04T22:08:38.400Z,19.21
2023-06-04T22:11:41.444Z,19.22
2023-06-04T22:14:44.239Z,19.22
2023-06-04T22:17:47.170Z,19.20
2023-06-04T22:20:49.569Z,19.20
2023-06-04T22:23:52.867Z,19.21
2023-06-04T22:26:55.204Z,19.20
2023-06-04T22:29:58.210Z,19.19
2023-06-04T22:33:00.555Z,19.18
2023-06-04T22:36:03.916Z,19.15
2023-06-04T22:39:06.687Z,19.15
2023-06-04T22:42:09.751Z,19.14
2023-06-04T22:45:12.186Z,19.17
2023-06-04T22:48:15.160Z,19.11
2023-06-04T22:51:18.314Z,19.11
2023-06-04T22:54:21.389Z,19.10
2023-06-04T22:57:25.546Z,19.05
2023-06-04T23:00:28.719Z,19.08
2023-06-04T23:03:31.496Z,19.09
2023-06-04T23:06:34.703Z,19.06
2023-06-04T23:09:37.157Z,19.09
2023-06-04T23:12:40.096Z,19.03
2023-06-04T23:15:42.634Z,19.00
2023-06-04T23:18:45.665Z,19.00
2023-06-04T23:21:48.052Z,19.02
2023-06-04T23:24:50.962Z,19.03
2023-06-04T23:27:53.347Z,18.97
2023-06-04T23:30:56.492Z,19.01
2023-06-04T23:33:58.791Z,18.98
2023-06-04T23:37:02.089Z,18.93
2023-06-04T23:40:05.722Z,18.94
2023-06-04T23:43:08.652Z,18.95
2023-06-04T23:46:11.081Z,18.92
2023-06-04T23:49:14.060Z,18.92
2023-06-04T23:52:17.647Z,18.91
2023-06-04T23:55:20.728Z,18.92
2023-06-04T23:58:23.035Z,18.91
